sensor_id;sensor_type;location;lat;lon;timestamp;temperature;humidity
9041;DHT22;4555;49.918;7.012;2022-11-09T00:00:00;13.40;99.90
9041;DHT22;4555;49.918;7.012;2022-11-09T00:02:26;13.50;99.90
9041;DHT22;4555;49.918;7.012;2022-11-09T00:04:52;13.50;99.90
9041;DHT22;4555;49.918;7.012;2022-11-09T00:07:18;13.50;99.90
9041;DHT22;4555;49.918;7.012;2022-11-09T00:09:43;13.40;99.90
9041;DHT22;4555;49.918;7.012;2022-11-09T00:12:09;13.40;99.90
9041;DHT22;4555;49.918;7.012;2022-11-09T00:14:35;13.40;99.90
9041;DHT22;4555;49.918;7.012;2022-11-09T00:17:01;13.40;99.90
9041;DHT22;4555;49.918;7.012;2022-11-09T00:21:52;13.20;99.90
9041;DHT22;4555;49.918;7.012;2022-11-09T00:24:18;13.20;99.90
9041;DHT22;4555;49.918;7.012;2022-11-09T00:26:44;13.20;99.90
9041;DHT22;4555;49.918;7.012;2022-11-09T00:29:09;13.10;99.90
9041;DHT22;4555;49.918;7.012;2022-11-09T00:31:35;13.10;99.90
9041;DHT22;4555;49.918;7.012;2022-11-09T00:34:01;13.10;99.90
9041;DHT22;4555;49.918;7.012;2022-11-09T00:36:28;13.10;99.90
9041;DHT22;4555;49.918;7.012;2022-11-09T00:38:57;13.10;99.90
9041;DHT22;4555;49.918;7.012;2022-11-09T00:41:24;13.10;99.90
9041;DHT22;4555;49.918;7.012;2022-11-09T00:48:43;13.10;99.90
9041;DHT22;4555;49.918;7.012;2022-11-09T00:51:09;13.10;99.90
9041;DHT22;4555;49.918;7.012;2022-11-09T00:56:04;13.30;99.90
9041;DHT22;4555;49.918;7.012;2022-11-09T00:58:35;13.30;99.90
9041;DHT22;4555;49.918;7.012;2022-11-09T01:01:10;13.30;99.90
9041;DHT22;4555;49.918;7.012;2022-11-09T01:06:03;13.50;99.90
9041;DHT22;4555;49.918;7.012;2022-11-09T01:08:30;13.40;99.90
9041;DHT22;4555;49.918;7.012;2022-11-09T01:10:56;13.50;99.90
9041;DHT22;4555;49.918;7.012;2022-11-09T01:13:22;13.40;99.90
9041;DHT22;4555;49.918;7.012;2022-11-09T01:15:50;13.30;99.90
9041;DHT22;4555;49.918;7.012;2022-11-09T01:18:18;13.30;99.90
9041;DHT22;4555;49.918;7.012;2022-11-09T01:20:46;13.20;99.90
9041;DHT22;4555;49.918;7.012;2022-11-09T01:23:14;13.30;99.90
9041;DHT22;4555;49.918;7.012;2022-11-09T01:25:40;13.30;99.90
9041;DHT22;4555;49.918;7.012;2022-11-09T01:28:08;13.30;99.90
9041;DHT22;4555;49.918;7.012;2022-11-09T01:30:36;13.40;99.90
9041;DHT22;4555;49.918;7.012;2022-11-09T01:33:03;13.40;99.90
9041;DHT22;4555;49.918;7.012;2022-11-09T01:35:31;13.40;99.90
9041;DHT22;4555;49.918;7.012;2022-11-09T01:37:58;13.40;99.90
9041;DHT22;4555;49.918;7.012;2022-11-09T01:40:23;13.40;99.90
9041;DHT22;4555;49.918;7.012;2022-11-09T01:42:49;13.40;99.90
9041;DHT22;4555;49.918;7.012;2022-11-09T01:47:47;13.40;99.90
9041;DHT22;4555;49.918;7.012;2022-11-09T01:50:17;13.30;99.90
9041;DHT22;4555;49.918;7.012;2022-11-09T01:52:46;13.20;99.90
9041;DHT22;4555;49.918;7.012;2022-11-09T01:55:16;13.20;99.90
9041;DHT22;4555;49.918;7.012;2022-11-09T01:57:53;13.20;99.90
9041;DHT22;4555;49.918;7.012;2022-11-09T02:00:20;13.20;99.90
9041;DHT22;4555;49.918;7.012;2022-11-09T02:03:04;13.10;99.90
9041;DHT22;4555;49.918;7.012;2022-11-09T02:05:33;13.10;99.90
9041;DHT22;4555;49.918;7.012;2022-11-09T02:08:01;13.10;99.90
9041;DHT22;4555;49.918;7.012;2022-11-09T02:13:05;12.90;99.90
9041;DHT22;4555;49.918;7.012;2022-11-09T02:15:36;12.90;99.90
9041;DHT22;4555;49.918;7.012;2022-11-09T02:18:03;12.80;99.90
9041;DHT22;4555;49.918;7.012;2022-11-09T02:20:29;12.90;99.90
9041;DHT22;4555;49.918;7.012;2022-11-09T02:22:57;12.80;99.90
9041;DHT22;4555;49.918;7.012;2022-11-09T02:25:22;12.90;99.90
9041;DHT22;4555;49.918;7.012;2022-11-09T02:27:48;12.90;99.90
9041;DHT22;4555;49.918;7.012;2022-11-09T02:30:18;13.00;99.90
9041;DHT22;4555;49.918;7.012;2022-11-09T02:32:46;13.00;99.90
9041;DHT22;4555;49.918;7.012;2022-11-09T02:35:12;13.00;99.90
9041;DHT22;4555;49.918;7.012;2022-11-09T02:37:47;13.00;99.90
9041;DHT22;4555;49.918;7.012;2022-11-09T02:40:18;12.90;99.90
9041;DHT22;4555;49.918;7.012;2022-11-09T02:42:45;12.90;99.90
9041;DHT22;4555;49.918;7.012;2022-11-09T02:45:11;13.00;99.90
9041;DHT22;4555;49.918;7.012;2022-11-09T02:47:38;13.00;99.90
9041;DHT22;4555;49.918;7.012;2022-11-09T02:50:05;13.00;99.90
9041;DHT22;4555;49.918;7.012;2022-11-09T02:54:56;13.20;99.90
9041;DHT22;4555;49.918;7.012;2022-11-09T02:57:22;13.30;99.90
9041;DHT22;4555;49.918;7.012;2022-11-09T02:59:49;13.40;99.90
9041;DHT22;4555;49.918;7.012;2022-11-09T03:02:15;13.40;99.90
9041;DHT22;4555;49.918;7.012;2022-11-09T03:04:41;13.40;99.90
9041;DHT22;4555;49.918;7.012;2022-11-09T03:07:07;13.40;99.90
9041;DHT22;4555;49.918;7.012;2022-11-09T03:09:33;13.50;99.90
9041;DHT22;4555;49.918;7.012;2022-11-09T03:11:58;13.50;99.90
9041;DHT22;4555;49.918;7.012;2022-11-09T03:14:45;13.50;99.90
9041;DHT22;4555;49.918;7.012;2022-11-09T03:17:11;13.50;99.90
9041;DHT22;4555;49.918;7.012;2022-11-09T03:22:04;13.50;99.90
9041;DHT22;4555;49.918;7.012;2022-11-09T03:26:56;13.30;99.90
9041;DHT22;4555;49.918;7.012;2022-11-09T03:31:48;13.20;99.90
9041;DHT22;4555;49.918;7.012;2022-11-09T03:36:40;13.30;99.90
9041;DHT22;4555;49.918;7.012;2022-11-09T03:46:26;13.30;99.90
9041;DHT22;4555;49.918;7.012;2022-11-09T03:48:52;13.30;99.90
9041;DHT22;4555;49.918;7.012;2022-11-09T03:51:17;13.20;99.90
9041;DHT22;4555;49.918;7.012;2022-11-09T03:53:43;13.10;99.90
9041;DHT22;4555;49.918;7.012;2022-11-09T03:56:08;13.10;99.90
9041;DHT22;4555;49.918;7.012;2022-11-09T04:01:00;13.20;99.90
9041;DHT22;4555;49.918;7.012;2022-11-09T04:03:25;13.20;99.90
9041;DHT22;4555;49.918;7.012;2022-11-09T04:05:51;13.10;99.90
9041;DHT22;4555;49.918;7.012;2022-11-09T04:08:17;13.10;99.90
9041;DHT22;4555;49.918;7.012;2022-11-09T04:10:42;13.00;99.90
9041;DHT22;4555;49.918;7.012;2022-11-09T04:13:08;13.10;99.90
9041;DHT22;4555;49.918;7.012;2022-11-09T04:18:01;13.20;99.90
9041;DHT22;4555;49.918;7.012;2022-11-09T04:20:29;13.10;99.90
9041;DHT22;4555;49.918;7.012;2022-11-09T04:25:21;13.20;99.90
9041;DHT22;4555;49.918;7.012;2022-11-09T04:27:47;13.20;99.90
9041;DHT22;4555;49.918;7.012;2022-11-09T04:30:12;13.20;99.90
9041;DHT22;4555;49.918;7.012;2022-11-09T04:32:38;13.20;99.90
9041;DHT22;4555;49.918;7.012;2022-11-09T04:35:05;13.20;99.90
9041;DHT22;4555;49.918;7.012;2022-11-09T04:37:30;13.10;99.90
9041;DHT22;4555;49.918;7.012;2022-11-09T04:47:14;13.10;99.90
9041;DHT22;4555;49.918;7.012;2022-11-09T04:49:39;13.20;99.90
9041;DHT22;4555;49.918;7.012;2022-11-09T04:52:05;13.20;99.90
9041;DHT22;4555;49.918;7.012;2022-11-09T04:54:31;13.20;99.90
9041;DHT22;4555;49.918;7.012;2022-11-09T04:56:56;13.20;99.90
9041;DHT22;4555;49.918;7.012;2022-11-09T04:59:22;13.20;99.90
9041;DHT22;4555;49.918;7.012;2022-11-09T05:01:47;13.30;99.90
9041;DHT22;4555;49.918;7.012;2022-11-09T05:04:13;13.30;99.90
9041;DHT22;4555;49.918;7.012;2022-11-09T05:06:39;13.40;99.90
9041;DHT22;4555;49.918;7.012;2022-11-09T05:09:06;13.40;99.90
9041;DHT22;4555;49.918;7.012;2022-11-09T05:11:33;13.40;99.90
9041;DHT22;4555;49.918;7.012;2022-11-09T05:13:59;13.40;99.90
9041;DHT22;4555;49.918;7.012;2022-11-09T05:16:26;13.40;99.90
9041;DHT22;4555;49.918;7.012;2022-11-09T05:18:52;13.40;99.90
9041;DHT22;4555;49.918;7.012;2022-11-09T05:26:37;13.50;99.90
9041;DHT22;4555;49.918;7.012;2022-11-09T05:29:05;13.60;99.90
9041;DHT22;4555;49.918;7.012;2022-11-09T05:33:58;13.60;99.90
9041;DHT22;4555;49.918;7.012;2022-11-09T05:36:25;13.60;99.90
9041;DHT22;4555;49.918;7.012;2022-11-09T05:38:51;13.60;99.90
9041;DHT22;4555;49.918;7.012;2022-11-09T05:41:16;13.60;99.90
9041;DHT22;4555;49.918;7.012;2022-11-09T05:43:43;13.70;99.90
9041;DHT22;4555;49.918;7.012;2022-11-09T05:46:10;13.60;99.90
9041;DHT22;4555;49.918;7.012;2022-11-09T05:48:35;13.70;99.90
9041;DHT22;4555;49.918;7.012;2022-11-09T05:51:02;13.70;99.90
9041;DHT22;4555;49.918;7.012;2022-11-09T05:53:28;13.70;99.20
9041;DHT22;4555;49.918;7.012;2022-11-09T06:00:46;13.80;97.30
9041;DHT22;4555;49.918;7.012;2022-11-09T06:03:12;13.70;99.90
9041;DHT22;4555;49.918;7.012;2022-11-09T06:05:39;13.50;99.90
9041;DHT22;4555;49.918;7.012;2022-11-09T06:08:08;13.50;99.90
9041;DHT22;4555;49.918;7.012;2022-11-09T06:13:00;13.20;99.90
9041;DHT22;4555;49.918;7.012;2022-11-09T06:15:26;13.10;99.90
9041;DHT22;4555;49.918;7.012;2022-11-09T06:17:56;13.10;99.90
9041;DHT22;4555;49.918;7.012;2022-11-09T06:20:22;13.00;99.90
9041;DHT22;4555;49.918;7.012;2022-11-09T06:22:55;13.00;99.90
9041;DHT22;4555;49.918;7.012;2022-11-09T06:27:48;12.90;99.90
9041;DHT22;4555;49.918;7.012;2022-11-09T06:30:14;12.90;99.90
9041;DHT22;4555;49.918;7.012;2022-11-09T06:32:40;12.90;99.90
9041;DHT22;4555;49.918;7.012;2022-11-09T06:35:06;12.80;99.90
9041;DHT22;4555;49.918;7.012;2022-11-09T06:37:31;12.80;99.90
9041;DHT22;4555;49.918;7.012;2022-11-09T06:39:57;12.90;99.90
9041;DHT22;4555;49.918;7.012;2022-11-09T06:42:23;12.90;99.90
9041;DHT22;4555;49.918;7.012;2022-11-09T06:44:49;12.80;99.90
9041;DHT22;4555;49.918;7.012;2022-11-09T06:47:14;12.90;99.90
9041;DHT22;4555;49.918;7.012;2022-11-09T06:59:25;12.90;99.90
9041;DHT22;4555;49.918;7.012;2022-11-09T07:01:53;13.00;99.90
9041;DHT22;4555;49.918;7.012;2022-11-09T07:04:18;13.00;99.90
9041;DHT22;4555;49.918;7.012;2022-11-09T07:06:44;13.10;99.90
9041;DHT22;4555;49.918;7.012;2022-11-09T07:09:11;13.10;99.90
9041;DHT22;4555;49.918;7.012;2022-11-09T07:11:37;13.10;99.90
9041;DHT22;4555;49.918;7.012;2022-11-09T07:14:03;13.10;99.90
9041;DHT22;4555;49.918;7.012;2022-11-09T07:16:29;13.10;99.90
9041;DHT22;4555;49.918;7.012;2022-11-09T07:18:55;13.20;99.90
9041;DHT22;4555;49.918;7.012;2022-11-09T07:21:20;13.30;99.90
9041;DHT22;4555;49.918;7.012;2022-11-09T07:23:47;13.30;99.90
9041;DHT22;4555;49.918;7.012;2022-11-09T07:28:39;13.60;99.90
9041;DHT22;4555;49.918;7.012;2022-11-09T07:33:31;13.80;38.60
9041;DHT22;4555;49.918;7.012;2022-11-09T07:35:59;13.90;75.30
9041;DHT22;4555;49.918;7.012;2022-11-09T07:40:51;13.80;73.10
9041;DHT22;4555;49.918;7.012;2022-11-09T07:43:17;13.80;79.70
9041;DHT22;4555;49.918;7.012;2022-11-09T07:45:48;13.80;82.50
9041;DHT22;4555;49.918;7.012;2022-11-09T07:48:13;13.80;94.70
9041;DHT22;4555;49.918;7.012;2022-11-09T07:50:39;13.70;87.70
9041;DHT22;4555;49.918;7.012;2022-11-09T07:53:06;13.70;96.10
9041;DHT22;4555;49.918;7.012;2022-11-09T07:58:06;14.10;99.90
9041;DHT22;4555;49.918;7.012;2022-11-09T08:00:34;14.30;9.30
9041;DHT22;4555;49.918;7.012;2022-11-09T08:03:00;14.20;55.30
9041;DHT22;4555;49.918;7.012;2022-11-09T08:05:26;14.20;63.10
9041;DHT22;4555;49.918;7.012;2022-11-09T08:07:57;14.10;64.40
9041;DHT22;4555;49.918;7.012;2022-11-09T08:10:24;14.10;26.60
9041;DHT22;4555;49.918;7.012;2022-11-09T08:12:54;14.00;14.50
9041;DHT22;4555;49.918;7.012;2022-11-09T08:20:13;13.90;72.80
9041;DHT22;4555;49.918;7.012;2022-11-09T08:22:44;14.00;69.00
9041;DHT22;4555;49.918;7.012;2022-11-09T08:25:11;14.10;38.60
9041;DHT22;4555;49.918;7.012;2022-11-09T08:27:37;14.40;36.60
9041;DHT22;4555;49.918;7.012;2022-11-09T08:30:10;14.70;1.00
9041;DHT22;4555;49.918;7.012;2022-11-09T08:32:36;14.70;1.00
9041;DHT22;4555;49.918;7.012;2022-11-09T08:35:02;14.70;1.00
9041;DHT22;4555;49.918;7.012;2022-11-09T08:37:28;14.60;1.00
9041;DHT22;4555;49.918;7.012;2022-11-09T08:44:46;14.40;1.00
9041;DHT22;4555;49.918;7.012;2022-11-09T08:47:12;14.30;1.00
9041;DHT22;4555;49.918;7.012;2022-11-09T08:49:37;14.30;1.00
9041;DHT22;4555;49.918;7.012;2022-11-09T08:52:03;14.30;1.00
9041;DHT22;4555;49.918;7.012;2022-11-09T08:54:29;14.40;1.00
9041;DHT22;4555;49.918;7.012;2022-11-09T08:56:55;14.40;1.00
9041;DHT22;4555;49.918;7.012;2022-11-09T08:59:21;14.40;1.00
9041;DHT22;4555;49.918;7.012;2022-11-09T09:01:47;14.40;1.00
9041;DHT22;4555;49.918;7.012;2022-11-09T09:04:13;14.50;1.00
9041;DHT22;4555;49.918;7.012;2022-11-09T09:06:38;14.50;1.00
9041;DHT22;4555;49.918;7.012;2022-11-09T09:09:04;14.50;1.00
9041;DHT22;4555;49.918;7.012;2022-11-09T09:11:29;14.50;1.00
9041;DHT22;4555;49.918;7.012;2022-11-09T09:13:55;14.60;1.00
9041;DHT22;4555;49.918;7.012;2022-11-09T09:16:21;14.70;1.00
9041;DHT22;4555;49.918;7.012;2022-11-09T09:18:47;14.70;1.00
9041;DHT22;4555;49.918;7.012;2022-11-09T09:21:13;14.70;1.00
9041;DHT22;4555;49.918;7.012;2022-11-09T09:23:39;14.70;1.00
9041;DHT22;4555;49.918;7.012;2022-11-09T09:26:04;14.90;1.00
9041;DHT22;4555;49.918;7.012;2022-11-09T09:30:59;15.30;99.90
9041;DHT22;4555;49.918;7.012;2022-11-09T09:33:26;15.40;99.90
9041;DHT22;4555;49.918;7.012;2022-11-09T09:35:55;15.60;99.90
9041;DHT22;4555;49.918;7.012;2022-11-09T09:41:02;16.00;99.90
9041;DHT22;4555;49.918;7.012;2022-11-09T09:43:43;16.30;1.00
9041;DHT22;4555;49.918;7.012;2022-11-09T09:48:49;16.30;99.90
9041;DHT22;4555;49.918;7.012;2022-11-09T09:51:34;16.30;1.00
9041;DHT22;4555;49.918;7.012;2022-11-09T09:54:23;16.30;1.00
9041;DHT22;4555;49.918;7.012;2022-11-09T09:56:50;16.40;1.00
9041;DHT22;4555;49.918;7.012;2022-11-09T09:59:32;16.50;99.90
9041;DHT22;4555;49.918;7.012;2022-11-09T10:01:59;16.60;99.90
9041;DHT22;4555;49.918;7.012;2022-11-09T10:04:35;16.30;99.90
9041;DHT22;4555;49.918;7.012;2022-11-09T10:12:56;15.90;99.90
9041;DHT22;4555;49.918;7.012;2022-11-09T10:18:19;15.80;32.70
9041;DHT22;4555;49.918;7.012;2022-11-09T10:21:17;15.80;99.90
9041;DHT22;4555;49.918;7.012;2022-11-09T10:26:54;15.60;1.00
9041;DHT22;4555;49.918;7.012;2022-11-09T10:29:26;15.50;1.00
9041;DHT22;4555;49.918;7.012;2022-11-09T10:32:00;15.60;99.90
9041;DHT22;4555;49.918;7.012;2022-11-09T10:34:35;15.80;99.90
9041;DHT22;4555;49.918;7.012;2022-11-09T10:37:06;15.80;1.00
9041;DHT22;4555;49.918;7.012;2022-11-09T10:39:41;17.30;1.00
9041;DHT22;4555;49.918;7.012;2022-11-09T10:42:27;15.80;99.90
9041;DHT22;4555;49.918;7.012;2022-11-09T10:45:20;15.90;1.00
9041;DHT22;4555;49.918;7.012;2022-11-09T10:48:09;15.80;1.00
9041;DHT22;4555;49.918;7.012;2022-11-09T10:50:54;15.80;99.20
9041;DHT22;4555;49.918;7.012;2022-11-09T10:53:38;15.70;1.00
9041;DHT22;4555;49.918;7.012;2022-11-09T10:56:22;15.80;1.00
9041;DHT22;4555;49.918;7.012;2022-11-09T11:07:53;16.00;1.00
9041;DHT22;4555;49.918;7.012;2022-11-09T11:10:37;15.90;1.00
9041;DHT22;4555;49.918;7.012;2022-11-09T11:13:23;15.90;1.00
9041;DHT22;4555;49.918;7.012;2022-11-09T11:19:04;15.90;1.00
9041;DHT22;4555;49.918;7.012;2022-11-09T11:22:22;15.90;1.00
9041;DHT22;4555;49.918;7.012;2022-11-09T11:25:20;15.80;1.00
9041;DHT22;4555;49.918;7.012;2022-11-09T11:28:16;15.80;24.70
9041;DHT22;4555;49.918;7.012;2022-11-09T11:31:03;15.70;99.90
9041;DHT22;4555;49.918;7.012;2022-11-09T11:33:48;15.60;1.00
9041;DHT22;4555;49.918;7.012;2022-11-09T11:49:35;15.80;1.00
9041;DHT22;4555;49.918;7.012;2022-11-09T12:16:48;15.60;1.00
9041;DHT22;4555;49.918;7.012;2022-11-09T12:29:22;15.50;1.00
9041;DHT22;4555;49.918;7.012;2022-11-09T12:35:23;15.50;1.00
9041;DHT22;4555;49.918;7.012;2022-11-09T12:41:11;15.50;1.00
9041;DHT22;4555;49.918;7.012;2022-11-09T12:44:13;15.40;1.00
9041;DHT22;4555;49.918;7.012;2022-11-09T12:47:03;16.50;1.00
9041;DHT22;4555;49.918;7.012;2022-11-09T12:49:50;15.30;45.20
9041;DHT22;4555;49.918;7.012;2022-11-09T12:52:35;15.20;99.90
9041;DHT22;4555;49.918;7.012;2022-11-09T12:55:28;15.20;99.90
9041;DHT22;4555;49.918;7.012;2022-11-09T12:58:25;15.20;1.00
9041;DHT22;4555;49.918;7.012;2022-11-09T13:01:12;15.10;99.90
9041;DHT22;4555;49.918;7.012;2022-11-09T13:03:58;15.10;99.90
9041;DHT22;4555;49.918;7.012;2022-11-09T13:09:57;15.00;99.90
9041;DHT22;4555;49.918;7.012;2022-11-09T13:12:42;15.10;1.00
9041;DHT22;4555;49.918;7.012;2022-11-09T13:15:29;15.00;1.00
9041;DHT22;4555;49.918;7.012;2022-11-09T13:18:24;15.00;1.00
9041;DHT22;4555;49.918;7.012;2022-11-09T13:27:43;14.80;1.00
9041;DHT22;4555;49.918;7.012;2022-11-09T13:36:12;14.70;47.20
9041;DHT22;4555;49.918;7.012;2022-11-09T13:39:29;14.80;1.00
9041;DHT22;4555;49.918;7.012;2022-11-09T13:42:27;14.80;1.00
9041;DHT22;4555;49.918;7.012;2022-11-09T13:45:25;14.80;99.90
9041;DHT22;4555;49.918;7.012;2022-11-09T13:48:33;14.80;4.50
9041;DHT22;4555;49.918;7.012;2022-11-09T13:51:23;14.80;1.00
9041;DHT22;4555;49.918;7.012;2022-11-09T13:54:31;14.80;1.00
9041;DHT22;4555;49.918;7.012;2022-11-09T13:57:16;14.80;99.90
9041;DHT22;4555;49.918;7.012;2022-11-09T14:00:01;14.90;88.50
9041;DHT22;4555;49.918;7.012;2022-11-09T14:02:59;14.90;1.00
9041;DHT22;4555;49.918;7.012;2022-11-09T14:05:44;14.90;76.90
9041;DHT22;4555;49.918;7.012;2022-11-09T14:08:35;14.90;99.90
9041;DHT22;4555;49.918;7.012;2022-11-09T14:11:35;14.90;54.90
9041;DHT22;4555;49.918;7.012;2022-11-09T14:17:57;15.00;2.80
9041;DHT22;4555;49.918;7.012;2022-11-09T14:20:52;14.90;99.90
9041;DHT22;4555;49.918;7.012;2022-11-09T14:23:38;15.00;50.90
9041;DHT22;4555;49.918;7.012;2022-11-09T14:26:24;15.00;99.90
9041;DHT22;4555;49.918;7.012;2022-11-09T14:29:23;14.90;83.00
9041;DHT22;4555;49.918;7.012;2022-11-09T14:35:29;14.80;99.90
9041;DHT22;4555;49.918;7.012;2022-11-09T14:38:20;14.80;99.90
9041;DHT22;4555;49.918;7.012;2022-11-09T14:41:04;14.80;99.90
9041;DHT22;4555;49.918;7.012;2022-11-09T14:44:00;14.80;99.90
9041;DHT22;4555;49.918;7.012;2022-11-09T14:46:51;14.70;46.70
9041;DHT22;4555;49.918;7.012;2022-11-09T14:49:36;14.70;99.90
9041;DHT22;4555;49.918;7.012;2022-11-09T14:52:26;14.60;99.90
9041;DHT22;4555;49.918;7.012;2022-11-09T14:55:13;14.60;99.90
9041;DHT22;4555;49.918;7.012;2022-11-09T14:57:58;14.60;99.90
9041;DHT22;4555;49.918;7.012;2022-11-09T15:00:43;14.60;99.90
9041;DHT22;4555;49.918;7.012;2022-11-09T15:03:29;14.60;99.90
9041;DHT22;4555;49.918;7.012;2022-11-09T15:06:15;14.60;99.90
9041;DHT22;4555;49.918;7.012;2022-11-09T15:09:06;14.50;99.90
9041;DHT22;4555;49.918;7.012;2022-11-09T15:11:51;14.50;99.90
9041;DHT22;4555;49.918;7.012;2022-11-09T15:14:35;15.80;99.90
9041;DHT22;4555;49.918;7.012;2022-11-09T15:17:26;14.40;1.00
9041;DHT22;4555;49.918;7.012;2022-11-09T15:22:59;14.30;1.00
9041;DHT22;4555;49.918;7.012;2022-11-09T15:28:29;15.00;1.00
9041;DHT22;4555;49.918;7.012;2022-11-09T15:31:16;14.10;1.00
9041;DHT22;4555;49.918;7.012;2022-11-09T15:34:20;14.10;1.00
9041;DHT22;4555;49.918;7.012;2022-11-09T15:40:15;14.00;1.00
9041;DHT22;4555;49.918;7.012;2022-11-09T15:42:59;13.80;1.00
9041;DHT22;4555;49.918;7.012;2022-11-09T15:45:44;13.80;1.00
9041;DHT22;4555;49.918;7.012;2022-11-09T15:48:28;13.70;1.00
9041;DHT22;4555;49.918;7.012;2022-11-09T15:51:13;13.70;1.00
9041;DHT22;4555;49.918;7.012;2022-11-09T15:53:58;13.70;1.00
9041;DHT22;4555;49.918;7.012;2022-11-09T15:56:42;13.70;1.00
9041;DHT22;4555;49.918;7.012;2022-11-09T15:59:27;13.70;1.00
9041;DHT22;4555;49.918;7.012;2022-11-09T16:02:11;13.60;1.00
9041;DHT22;4555;49.918;7.012;2022-11-09T16:04:55;13.50;1.00
9041;DHT22;4555;49.918;7.012;2022-11-09T16:07:50;13.50;1.00
9041;DHT22;4555;49.918;7.012;2022-11-09T16:10:35;13.40;1.00
9041;DHT22;4555;49.918;7.012;2022-11-09T16:13:23;13.40;1.00
9041;DHT22;4555;49.918;7.012;2022-11-09T16:16:08;13.30;1.00
9041;DHT22;4555;49.918;7.012;2022-11-09T16:18:54;13.30;1.00
9041;DHT22;4555;49.918;7.012;2022-11-09T16:21:38;13.40;1.00
9041;DHT22;4555;49.918;7.012;2022-11-09T16:24:23;13.30;1.00
9041;DHT22;4555;49.918;7.012;2022-11-09T16:27:07;13.20;1.00
9041;DHT22;4555;49.918;7.012;2022-11-09T16:29:51;13.20;1.00
9041;DHT22;4555;49.918;7.012;2022-11-09T16:32:36;13.20;1.00
9041;DHT22;4555;49.918;7.012;2022-11-09T16:35:20;13.10;1.00
9041;DHT22;4555;49.918;7.012;2022-11-09T16:38:06;13.20;1.00
9041;DHT22;4555;49.918;7.012;2022-11-09T16:40:50;13.20;1.00
9041;DHT22;4555;49.918;7.012;2022-11-09T16:43:35;13.20;1.00
9041;DHT22;4555;49.918;7.012;2022-11-09T16:46:26;13.20;1.00
9041;DHT22;4555;49.918;7.012;2022-11-09T16:49:10;13.20;1.00
9041;DHT22;4555;49.918;7.012;2022-11-09T16:51:55;13.20;1.00
9041;DHT22;4555;49.918;7.012;2022-11-09T16:54:39;13.20;1.00
9041;DHT22;4555;49.918;7.012;2022-11-09T16:57:24;13.30;1.00
9041;DHT22;4555;49.918;7.012;2022-11-09T17:00:08;13.80;1.00
9041;DHT22;4555;49.918;7.012;2022-11-09T17:02:52;13.30;1.00
9041;DHT22;4555;49.918;7.012;2022-11-09T17:05:36;13.30;1.00
9041;DHT22;4555;49.918;7.012;2022-11-09T17:08:20;13.40;1.00
9041;DHT22;4555;49.918;7.012;2022-11-09T17:11:12;13.30;1.00
9041;DHT22;4555;49.918;7.012;2022-11-09T17:13:58;13.40;1.00
9041;DHT22;4555;49.918;7.012;2022-11-09T17:16:43;13.40;1.00
9041;DHT22;4555;49.918;7.012;2022-11-09T17:19:31;13.40;1.00
9041;DHT22;4555;49.918;7.012;2022-11-09T17:22:16;13.40;1.00
9041;DHT22;4555;49.918;7.012;2022-11-09T17:25:00;13.50;1.00
9041;DHT22;4555;49.918;7.012;2022-11-09T17:27:45;13.40;1.00
9041;DHT22;4555;49.918;7.012;2022-11-09T17:30:29;13.30;1.00
9041;DHT22;4555;49.918;7.012;2022-11-09T17:33:13;13.40;1.00
9041;DHT22;4555;49.918;7.012;2022-11-09T17:36:03;13.40;1.00
9041;DHT22;4555;49.918;7.012;2022-11-09T17:38:47;13.40;1.00
9041;DHT22;4555;49.918;7.012;2022-11-09T17:41:31;13.50;1.00
9041;DHT22;4555;49.918;7.012;2022-11-09T17:44:16;13.40;1.00
9041;DHT22;4555;49.918;7.012;2022-11-09T17:47:00;13.40;1.00
9041;DHT22;4555;49.918;7.012;2022-11-09T17:49:44;13.30;1.00
9041;DHT22;4555;49.918;7.012;2022-11-09T17:52:28;13.30;1.00
9041;DHT22;4555;49.918;7.012;2022-11-09T17:55:12;13.20;1.00
9041;DHT22;4555;49.918;7.012;2022-11-09T17:57:56;13.20;1.00
9041;DHT22;4555;49.918;7.012;2022-11-09T18:00:41;13.20;1.00
9041;DHT22;4555;49.918;7.012;2022-11-09T18:03:25;13.20;1.00
9041;DHT22;4555;49.918;7.012;2022-11-09T18:06:16;13.20;1.00
9041;DHT22;4555;49.918;7.012;2022-11-09T18:09:00;13.20;1.00
9041;DHT22;4555;49.918;7.012;2022-11-09T18:11:45;13.10;1.00
9041;DHT22;4555;49.918;7.012;2022-11-09T18:14:29;13.10;1.00
9041;DHT22;4555;49.918;7.012;2022-11-09T18:17:13;13.10;1.00
9041;DHT22;4555;49.918;7.012;2022-11-09T18:19:57;13.00;1.00
9041;DHT22;4555;49.918;7.012;2022-11-09T18:22:41;12.90;1.00
9041;DHT22;4555;49.918;7.012;2022-11-09T18:25:25;12.90;1.00
9041;DHT22;4555;49.918;7.012;2022-11-09T18:28:10;12.80;1.00
9041;DHT22;4555;49.918;7.012;2022-11-09T18:31:07;12.90;7.60
9041;DHT22;4555;49.918;7.012;2022-11-09T18:33:51;12.70;12.80
9041;DHT22;4555;49.918;7.012;2022-11-09T18:36:37;12.60;15.10
9041;DHT22;4555;49.918;7.012;2022-11-09T18:39:21;12.60;23.60
9041;DHT22;4555;49.918;7.012;2022-11-09T18:42:05;12.60;22.60
9041;DHT22;4555;49.918;7.012;2022-11-09T18:44:49;12.60;34.60
9041;DHT22;4555;49.918;7.012;2022-11-09T18:47:34;12.50;31.90
9041;DHT22;4555;49.918;7.012;2022-11-09T18:50:18;12.50;43.60
9041;DHT22;4555;49.918;7.012;2022-11-09T18:53:02;12.50;29.40
9041;DHT22;4555;49.918;7.012;2022-11-09T18:55:47;12.50;37.00
9041;DHT22;4555;49.918;7.012;2022-11-09T18:58:31;12.60;45.40
9041;DHT22;4555;49.918;7.012;2022-11-09T19:01:16;12.60;48.30
9041;DHT22;4555;49.918;7.012;2022-11-09T19:04:00;12.60;43.30
9041;DHT22;4555;49.918;7.012;2022-11-09T19:06:47;12.60;30.80
9041;DHT22;4555;49.918;7.012;2022-11-09T19:09:31;12.50;46.60
9041;DHT22;4555;49.918;7.012;2022-11-09T19:12:18;12.50;55.20
9041;DHT22;4555;49.918;7.012;2022-11-09T19:15:02;12.40;64.50
9041;DHT22;4555;49.918;7.012;2022-11-09T19:17:47;12.30;73.90
9041;DHT22;4555;49.918;7.012;2022-11-09T19:20:31;12.20;88.70
9041;DHT22;4555;49.918;7.012;2022-11-09T19:23:15;12.20;90.50
9041;DHT22;4555;49.918;7.012;2022-11-09T19:26:00;12.10;94.20
9041;DHT22;4555;49.918;7.012;2022-11-09T19:28:44;12.00;99.60
9041;DHT22;4555;49.918;7.012;2022-11-09T19:31:28;12.00;99.90
9041;DHT22;4555;49.918;7.012;2022-11-09T19:34:15;12.00;99.80
9041;DHT22;4555;49.918;7.012;2022-11-09T19:36:59;12.00;99.50
9041;DHT22;4555;49.918;7.012;2022-11-09T19:39:44;12.00;99.90
9041;DHT22;4555;49.918;7.012;2022-11-09T19:42:30;11.90;99.90
9041;DHT22;4555;49.918;7.012;2022-11-09T19:45:15;11.80;99.90
9041;DHT22;4555;49.918;7.012;2022-11-09T19:48:00;11.80;99.90
9041;DHT22;4555;49.918;7.012;2022-11-09T19:50:48;12.90;99.90
9041;DHT22;4555;49.918;7.012;2022-11-09T19:53:35;11.70;99.90
9041;DHT22;4555;49.918;7.012;2022-11-09T19:56:20;11.60;99.90
9041;DHT22;4555;49.918;7.012;2022-11-09T19:59:05;11.60;99.90
9041;DHT22;4555;49.918;7.012;2022-11-09T20:01:50;11.60;99.90
9041;DHT22;4555;49.918;7.012;2022-11-09T20:04:34;11.50;99.90
9041;DHT22;4555;49.918;7.012;2022-11-09T20:07:18;11.50;99.90
9041;DHT22;4555;49.918;7.012;2022-11-09T20:10:03;11.50;99.90
9041;DHT22;4555;49.918;7.012;2022-11-09T20:12:48;11.40;99.90
9041;DHT22;4555;49.918;7.012;2022-11-09T20:15:32;11.30;99.90
9041;DHT22;4555;49.918;7.012;2022-11-09T20:18:16;11.30;99.90
9041;DHT22;4555;49.918;7.012;2022-11-09T20:21:02;11.30;99.90
9041;DHT22;4555;49.918;7.012;2022-11-09T20:23:46;11.20;99.90
9041;DHT22;4555;49.918;7.012;2022-11-09T20:26:31;11.20;99.90
9041;DHT22;4555;49.918;7.012;2022-11-09T20:29:15;11.20;99.90
9041;DHT22;4555;49.918;7.012;2022-11-09T20:32:00;11.30;99.90
9041;DHT22;4555;49.918;7.012;2022-11-09T20:34:44;11.30;99.90
9041;DHT22;4555;49.918;7.012;2022-11-09T20:37:27;11.10;99.90
9041;DHT22;4555;49.918;7.012;2022-11-09T20:40:12;11.10;99.90